Time;durP1;ratioP1;P1;durP2;ratioP2;P2;SDS_P1;SDS_P2;PMS_P1;PMS_P2;Temp;Humidity;BMP_temperature;BMP_pressure;BME280_temperature;BME280_humidity;BME280_pressure;Samples;Min_cycle;Max_cycle;Signal;HPM_P1;HPM_P2
2022/01/31 00:01:06;;;;;;;13.98;9.38;;;;;;;10.03;60.44;97263.45;1762917;80;21017;-63
2022/01/31 00:03:34;;;;;;;14.60;10.28;;;;;;;10.02;60.44;97261.84;1768874;80;21026;-68
2022/01/31 00:06:02;;;;;;;12.00;9.13;;;;;;;10.02;60.39;97257.87;1774960;80;21457;-67
2022/01/31 00:08:30;;;;;;;14.68;10.15;;;;;;;10.01;60.38;97257.56;1776612;79;21044;-65
2022/01/31 00:10:56;;;;;;;13.40;9.43;;;;;;;10.01;60.36;97260.22;1759099;79;23180;-67
2022/01/31 00:13:32;;;;;;;14.13;9.23;;;;;;;10.00;60.34;97248.50;1772490;80;20990;-66
2022/01/31 00:15:55;;;;;;;12.30;9.45;;;;;;;9.99;60.33;97256.18;1774176;80;21069;-66
2022/01/31 00:18:22;;;;;;;12.20;9.30;;;;;;;9.97;60.29;97249.77;1773751;79;21087;-67
2022/01/31 00:20:50;;;;;;;10.72;7.97;;;;;;;9.98;60.27;97251.38;1776701;80;21134;-66
2022/01/31 00:23:16;;;;;;;12.55;9.00;;;;;;;9.96;60.26;97254.77;1764336;79;21858;-67
2022/01/31 00:25:44;;;;;;;12.10;8.78;;;;;;;9.96;60.22;97256.09;1765314;78;21025;-69
2022/01/31 00:28:11;;;;;;;9.90;7.47;;;;;;;9.95;60.21;97247.86;1783777;79;21545;-65
2022/01/31 00:30:38;;;;;;;11.93;9.10;;;;;;;9.94;60.19;97252.86;1777098;80;21612;-67
2022/01/31 00:33:05;;;;;;;10.38;8.05;;;;;;;9.93;60.17;97248.61;1784425;79;21034;-68
2022/01/31 00:35:32;;;;;;;13.00;8.50;;;;;;;9.93;60.14;97250.42;1783922;80;21122;-68
2022/01/31 00:37:58;;;;;;;10.30;8.15;;;;;;;9.91;60.14;97262.61;1765583;79;21374;-67
2022/01/31 00:40:25;;;;;;;10.32;8.18;;;;;;;9.90;60.11;97242.41;1793787;79;21010;-66
2022/01/31 00:42:51;;;;;;;10.10;7.50;;;;;;;9.90;60.11;97241.61;1788165;79;21592;-66
2022/01/31 00:45:27;;;;;;;9.73;7.55;;;;;;;9.89;60.07;97249.26;1782567;79;21033;-67
2022/01/31 00:47:59;;;;;;;9.63;7.15;;;;;;;9.89;60.06;97238.16;1759716;80;21136;-65
2022/01/31 00:50:19;;;;;;;9.68;7.60;;;;;;;9.87;60.02;97241.55;1771303;80;21517;-65
2022/01/31 00:52:45;;;;;;;10.48;7.87;;;;;;;9.87;60.00;97243.38;1767470;80;21158;-67
2022/01/31 00:55:13;;;;;;;8.95;7.40;;;;;;;9.86;60.00;97236.47;1784340;80;20998;-66
2022/01/31 00:57:40;;;;;;;11.25;7.90;;;;;;;9.85;59.97;97243.63;1759224;79;21536;-66
2022/01/31 01:00:08;;;;;;;11.08;7.35;;;;;;;9.84;59.97;97235.36;1777923;79;21102;-65
2022/01/31 01:02:34;;;;;;;9.35;7.40;;;;;;;9.83;59.97;97236.38;1787212;80;21050;-65
2022/01/31 01:05:02;;;;;;;9.68;6.47;;;;;;;9.82;59.95;97236.91;1777054;79;21041;-64
2022/01/31 01:07:29;;;;;;;9.93;6.67;;;;;;;9.82;59.92;97239.55;1762592;80;21526;-66
2022/01/31 01:09:55;;;;;;;9.55;6.83;;;;;;;9.82;59.92;97234.77;1786701;80;21018;-65
2022/01/31 01:12:22;;;;;;;8.83;6.87;;;;;;;9.82;59.91;97233.45;1787606;80;21125;-66
2022/01/31 01:14:53;;;;;;;7.20;5.87;;;;;;;9.81;59.89;97237.95;1786918;79;21060;-68
2022/01/31 01:17:17;;;;;;;9.50;6.62;;;;;;;9.80;59.89;97231.02;1780815;79;21073;-66
2022/01/31 01:19:43;;;;;;;8.60;6.50;;;;;;;9.80;59.86;97243.47;1785120;79;21041;-66
2022/01/31 01:22:10;;;;;;;9.05;6.50;;;;;;;9.79;59.85;97237.38;1774356;79;21009;-66
2022/01/31 01:24:37;;;;;;;8.10;6.35;;;;;;;9.78;59.83;97228.31;1773699;79;21121;-67
2022/01/31 01:27:04;;;;;;;8.38;5.83;;;;;;;9.78;59.80;97235.73;1771079;80;20966;-66
2022/01/31 01:29:31;;;;;;;7.33;5.62;;;;;;;9.78;59.80;97233.61;1756518;79;21000;-65
2022/01/31 01:31:57;;;;;;;8.13;5.75;;;;;;;9.78;59.78;97238.91;1766070;79;21465;-66
2022/01/31 01:34:26;;;;;;;8.10;6.15;;;;;;;9.78;59.77;97240.23;1776864;79;21507;-65
2022/01/31 01:36:53;;;;;;;8.15;6.10;;;;;;;9.76;59.77;97237.80;1777425;79;21108;-66
2022/01/31 01:41:03;;;;;;;6.87;5.35;;;;;;;9.80;59.74;97239.50;1862249;76;28665;-65
2022/01/31 01:43:31;;;;;;;6.55;5.03;;;;;;;9.76;59.70;97239.66;1794406;78;21044;-66
2022/01/31 01:45:58;;;;;;;7.12;5.67;;;;;;;9.75;59.67;97241.48;1794562;78;21980;-66
2022/01/31 01:48:27;;;;;;;7.47;5.75;;;;;;;9.76;59.66;97241.78;1819424;77;21017;-65
2022/01/31 01:50:55;;;;;;;7.28;5.62;;;;;;;9.74;59.66;97235.89;1804194;78;20990;-65
2022/01/31 01:53:23;;;;;;;7.70;5.30;;;;;;;9.73;59.63;97243.55;1815380;78;20994;-66
2022/01/31 01:55:52;;;;;;;6.40;5.03;;;;;;;9.73;59.62;97240.89;1796033;78;21463;-66
2022/01/31 01:58:19;;;;;;;8.10;5.90;;;;;;;9.74;59.63;97239.08;1819320;78;21217;-65
2022/01/31 02:01:02;;;;;;;7.15;5.03;;;;;;;9.72;59.62;97249.09;1802178;77;21061;-66
2022/01/31 02:03:39;;;;;;;7.28;5.70;;;;;;;9.72;59.60;97242.47;1778143;78;21521;-65
2022/01/31 02:06:08;;;;;;;6.03;4.60;;;;;;;9.71;59.60;97244.81;1814539;77;20997;-64
2022/01/31 02:08:40;;;;;;;7.20;5.20;;;;;;;9.69;59.56;97242.37;1822545;77;21070;-67
2022/01/31 02:11:03;;;;;;;7.17;5.15;;;;;;;9.69;59.61;97253.50;1805271;77;21090;-66
2022/01/31 02:13:31;;;;;;;7.45;5.08;;;;;;;9.68;59.56;97247.89;1805389;78;20994;-67
2022/01/31 02:15:58;;;;;;;5.90;4.53;;;;;;;9.67;59.56;97244.44;1810954;78;21048;-66
2022/01/31 02:18:27;;;;;;;7.30;5.08;;;;;;;9.66;59.56;97238.86;1798325;78;21022;-66
2022/01/31 02:20:53;;;;;;;5.30;4.08;;;;;;;9.68;59.52;97241.27;1809856;78;21032;-66
2022/01/31 02:23:20;;;;;;;6.25;4.92;;;;;;;9.68;59.51;97249.22;1807083;78;21163;-66
2022/01/31 02:26:03;;;;;;;6.67;5.00;;;;;;;9.67;59.49;97244.44;1817027;77;21062;-66
2022/01/31 02:28:49;;;;;;;6.05;4.78;;;;;;;9.67;59.49;97243.12;1815511;77;21482;-64
2022/01/31 02:31:16;;;;;;;5.90;4.60;;;;;;;9.64;59.48;97247.03;1803753;77;21139;-65
2022/01/31 02:33:43;;;;;;;5.25;4.37;;;;;;;9.64;59.48;97249.69;1814412;77;20986;-66
2022/01/31 02:36:10;;;;;;;5.28;4.50;;;;;;;9.63;59.46;97248.05;1820687;77;21044;-67
2022/01/31 02:38:37;;;;;;;6.30;4.42;;;;;;;9.62;59.44;97247.77;1806633;78;21541;-67
2022/01/31 02:41:05;;;;;;;5.83;4.58;;;;;;;9.62;59.44;97242.47;1827145;77;21044;-66
2022/01/31 02:43:33;;;;;;;4.97;4.00;;;;;;;9.63;59.41;97251.22;1820342;77;21079;-67
2022/01/31 02:46:01;;;;;;;5.25;3.87;;;;;;;9.62;59.41;97251.75;1812927;78;21595;-66
2022/01/31 02:48:29;;;;;;;4.37;3.70;;;;;;;9.63;59.39;97252.55;1811779;78;21084;-66
2022/01/31 02:50:56;;;;;;;5.00;3.65;;;;;;;9.63;59.38;97255.20;1824910;78;21031;-67
2022/01/31 02:53:29;;;;;;;5.85;3.98;;;;;;;9.62;59.35;97253.59;1823908;77;21035;-68
2022/01/31 02:55:57;;;;;;;4.55;3.83;;;;;;;9.61;59.34;97259.39;1820283;78;21513;-66
2022/01/31 02:58:25;;;;;;;5.03;4.12;;;;;;;9.61;59.32;97246.66;1806848;76;21041;-66
2022/01/31 03:00:53;;;;;;;5.08;3.47;;;;;;;9.61;59.32;97250.64;1814273;77;21967;-66
2022/01/31 03:03:36;;;;;;;6.20;4.53;;;;;;;9.61;59.27;97251.97;1815117;78;21021;-65
2022/01/31 03:06:03;;;;;;;4.75;3.62;;;;;;;9.61;59.27;97250.64;1812513;78;21484;-66
2022/01/31 03:08:30;;;;;;;4.40;3.37;;;;;;;9.60;59.26;97255.63;1809011;78;20986;-67
2022/01/31 03:10:58;;;;;;;4.90;3.60;;;;;;;9.59;59.25;97258.01;1818456;78;21037;-67
2022/01/31 03:13:33;;;;;;;4.90;3.85;;;;;;;9.59;59.23;97254.83;1801345;78;21111;-66
2022/01/31 03:16:00;;;;;;;5.58;4.60;;;;;;;9.59;59.24;97255.36;1805966;76;21069;-66
2022/01/31 03:18:32;;;;;;;4.05;3.37;;;;;;;9.58;59.22;97245.28;1748744;78;21580;-65
2022/01/31 03:20:58;;;;;;;3.95;3.02;;;;;;;9.57;59.20;97242.32;1828498;78;21601;-66
2022/01/31 03:23:25;;;;;;;5.10;3.58;;;;;;;9.57;59.18;97251.59;1831479;78;21016;-66
2022/01/31 03:25:51;;;;;;;4.65;3.42;;;;;;;9.57;59.16;97250.27;1830048;77;21931;-67
2022/01/31 03:28:18;;;;;;;3.58;2.83;;;;;;;9.57;59.15;97259.55;1810570;77;21013;-67
2022/01/31 03:30:45;;;;;;;4.05;3.25;;;;;;;9.56;59.13;97251.32;1815866;78;20977;-66
2022/01/31 03:33:11;;;;;;;4.25;3.30;;;;;;;9.57;59.12;97259.55;1828791;76;20978;-66
2022/01/31 03:35:38;;;;;;;3.62;3.02;;;;;;;9.57;59.08;97264.05;1821029;77;20990;-67
2022/01/31 03:38:05;;;;;;;4.20;3.25;;;;;;;9.57;59.06;97253.45;1831564;77;21123;-67
2022/01/31 03:40:31;;;;;;;4.30;3.08;;;;;;;9.57;59.06;97254.77;1828223;78;21002;-66
2022/01/31 03:42:57;;;;;;;4.03;3.10;;;;;;;9.55;59.04;97254.98;1805639;78;21049;-66
2022/01/31 03:45:24;;;;;;;4.08;3.15;;;;;;;9.57;59.00;97262.72;1825527;78;21069;-67
2022/01/31 03:47:52;;;;;;;4.50;3.17;;;;;;;9.55;59.01;97250.21;1820693;77;20986;-65
2022/01/31 03:50:18;;;;;;;4.15;3.05;;;;;;;9.55;58.99;97263.47;1815818;77;21532;-66
2022/01/31 03:52:48;;;;;;;3.98;2.92;;;;;;;9.54;58.96;97263.16;1822832;77;21069;-67
2022/01/31 03:55:15;;;;;;;3.40;2.62;;;;;;;9.54;58.95;97256.03;1805926;78;20986;-66
2022/01/31 03:57:44;;;;;;;3.92;2.70;;;;;;;9.55;58.94;97266.11;1795273;78;21251;-66
2022/01/31 04:00:22;;;;;;;3.55;2.62;;;;;;;9.54;58.92;97263.16;1818622;78;20994;-65
2022/01/31 04:02:49;;;;;;;4.00;2.83;;;;;;;9.53;58.89;97262.35;1818345;78;21197;-66
2022/01/31 04:05:15;;;;;;;4.22;2.92;;;;;;;9.53;58.90;97258.90;1815602;77;20966;-66
2022/01/31 04:07:43;;;;;;;3.52;2.72;;;;;;;9.52;58.88;97267.38;1818799;77;21029;-66
2022/01/31 04:10:10;;;;;;;3.17;2.45;;;;;;;9.52;58.86;97264.73;1800396;78;21061;-68
2022/01/31 04:12:37;;;;;;;3.50;2.80;;;;;;;9.52;58.86;97256.78;1812046;78;21529;-67
2022/01/31 04:15:05;;;;;;;3.00;2.52;;;;;;;9.52;58.82;97262.08;1827318;77;21533;-67
2022/01/31 04:17:33;;;;;;;3.52;2.75;;;;;;;9.52;58.82;97274.50;1807537;78;21439;-66
2022/01/31 04:20:00;;;;;;;3.40;2.30;;;;;;;9.52;58.82;97262.57;1819235;78;21509;-66
2022/01/31 04:22:29;;;;;;;2.70;2.12;;;;;;;9.51;58.79;97267.59;1825654;78;21041;-67
2022/01/31 04:24:59;;;;;;;3.77;2.80;;;;;;;9.51;58.77;97276.87;1807707;77;21018;-66
2022/01/31 04:27:27;;;;;;;4.00;2.47;;;;;;;9.51;58.76;97274.22;1825329;78;21109;-66
2022/01/31 04:29:51;;;;;;;2.72;2.37;;;;;;;9.50;58.76;97273.91;1819629;78;21057;-67
2022/01/31 04:32:17;;;;;;;3.50;2.42;;;;;;;9.49;58.75;97279.73;1803555;78;21041;-66
2022/01/31 04:34:44;;;;;;;3.83;2.70;;;;;;;9.50;58.74;97296.44;1825380;78;21069;-66
2022/01/31 04:37:10;;;;;;;3.22;2.42;;;;;;;9.48;58.70;97286.05;1816820;78;21060;-67
2022/01/31 04:39:38;;;;;;;2.92;2.35;;;;;;;9.49;58.69;97286.36;1821889;77;21321;-65
2022/01/31 04:42:06;;;;;;;3.02;2.30;;;;;;;9.49;58.68;97293.51;1835700;76;21191;-67
2022/01/31 04:44:33;;;;;;;2.77;2.40;;;;;;;9.49;58.67;97289.01;1825161;78;21508;-67
2022/01/31 04:47:00;;;;;;;3.08;2.55;;;;;;;9.48;58.65;97291.35;1816022;78;21627;-66
2022/01/31 04:49:26;;;;;;;3.58;2.58;;;;;;;9.48;58.66;97297.17;1827520;77;21088;-65
2022/01/31 04:51:52;;;;;;;3.20;2.40;;;;;;;9.48;58.62;97297.98;1831228;77;21128;-66
2022/01/31 04:54:19;;;;;;;2.87;2.30;;;;;;;9.48;58.62;97299.83;1821568;78;21107;-65
2022/01/31 04:56:46;;;;;;;2.87;2.20;;;;;;;9.47;58.58;97303.00;1830128;78;20985;-65
2022/01/31 04:59:13;;;;;;;2.52;2.20;;;;;;;9.47;58.57;97312.27;1818975;77;21020;-65
2022/01/31 05:01:42;;;;;;;2.98;2.17;;;;;;;9.47;58.56;97317.58;1807333;78;21536;-66
2022/01/31 05:04:07;;;;;;;3.42;2.25;;;;;;;9.47;58.55;97316.25;1827428;78;21129;-66
2022/01/31 05:06:37;;;;;;;2.65;2.15;;;;;;;9.46;58.53;97309.31;1802070;78;21013;-66
2022/01/31 05:09:02;;;;;;;2.95;2.25;;;;;;;9.45;58.50;97313.81;1809256;78;21084;-67
2022/01/31 05:11:29;;;;;;;3.20;2.02;;;;;;;9.46;58.50;97322.56;1828428;78;20986;-67
2022/01/31 05:13:55;;;;;;;2.67;2.10;;;;;;;9.45;58.47;97324.94;1829071;77;21008;-68
2022/01/31 05:16:22;;;;;;;3.27;2.27;;;;;;;9.46;58.49;97326.54;1826989;76;21084;-67
2022/01/31 05:18:49;;;;;;;2.52;2.20;;;;;;;9.44;58.46;97329.92;1830752;77;21017;-66
2022/01/31 05:21:15;;;;;;;3.17;2.42;;;;;;;9.44;58.43;97328.11;1813960;77;21029;-66
2022/01/31 05:23:41;;;;;;;2.22;1.80;;;;;;;9.44;58.44;97329.92;1816438;77;20989;-66
2022/01/31 05:26:07;;;;;;;2.55;2.33;;;;;;;9.44;58.42;97324.13;1817828;78;21024;-67
2022/01/31 05:28:34;;;;;;;3.22;2.20;;;;;;;9.44;58.41;97332.08;1820464;78;21282;-68
2022/01/31 05:31:00;;;;;;;3.10;1.95;;;;;;;9.43;58.39;97333.09;1813089;78;21340;-66
2022/01/31 05:33:26;;;;;;;2.83;1.98;;;;;;;9.38;58.35;97326.83;1815024;77;21068;-66
2022/01/31 05:35:53;;;;;;;2.60;1.92;;;;;;;9.44;58.35;97343.17;1828022;78;20994;-66
2022/01/31 05:38:19;;;;;;;2.65;2.00;;;;;;;9.43;58.36;97346.88;1829241;78;21009;-66
2022/01/31 05:40:45;;;;;;;2.77;2.15;;;;;;;9.43;58.32;97337.08;1807291;78;23274;-66
2022/01/31 05:43:12;;;;;;;2.27;1.80;;;;;;;9.43;58.30;97353.50;1816480;78;21322;-66
2022/01/31 05:45:38;;;;;;;2.55;1.90;;;;;;;9.43;58.29;97361.45;1822423;77;20977;-66
2022/01/31 05:48:04;;;;;;;2.92;2.40;;;;;;;9.42;58.28;97365.11;1836918;77;21033;-66
2022/01/31 05:50:32;;;;;;;2.55;1.90;;;;;;;9.42;58.28;97363.79;1822258;77;21012;-67
2022/01/31 05:52:59;;;;;;;2.30;1.60;;;;;;;9.41;58.28;97355.03;1815462;77;21221;-67
2022/01/31 05:55:25;;;;;;;2.67;2.00;;;;;;;9.41;58.26;97365.63;1825763;78;20998;-65
2022/01/31 05:57:51;;;;;;;1.82;1.55;;;;;;;9.41;58.24;97368.28;1815049;77;21045;-65
2022/01/31 06:00:18;;;;;;;2.15;1.47;;;;;;;9.41;58.22;97374.91;1807342;78;21056;-67
2022/01/31 06:02:45;;;;;;;2.95;1.95;;;;;;;9.40;58.21;97370.63;1825457;78;22068;-66
2022/01/31 06:05:11;;;;;;;2.17;1.60;;;;;;;9.40;58.20;97384.40;1804713;78;21132;-67
2022/01/31 06:07:40;;;;;;;1.77;1.55;;;;;;;9.41;58.20;97391.33;1807316;77;21037;-65
2022/01/31 06:10:08;;;;;;;2.40;1.82;;;;;;;9.40;58.17;97375.92;1810579;77;21537;-67
2022/01/31 06:12:40;;;;;;;2.77;2.05;;;;;;;9.41;58.15;97380.73;1801294;78;21032;-66
2022/01/31 06:15:07;;;;;;;2.42;1.80;;;;;;;9.40;58.17;97372.47;1813844;78;21028;-67
2022/01/31 06:17:34;;;;;;;1.82;1.50;;;;;;;9.40;58.14;97375.12;1822049;77;21104;-67
2022/01/31 06:20:00;;;;;;;2.12;1.67;;;;;;;9.40;58.12;97377.25;1793955;78;21514;-66
2022/01/31 06:22:27;;;;;;;2.10;1.80;;;;;;;9.41;58.13;97376.23;1814452;78;21001;-64
2022/01/31 06:24:53;;;;;;;2.62;1.60;;;;;;;9.41;58.11;97376.76;1794444;78;20949;-66
2022/01/31 06:27:24;;;;;;;1.90;1.50;;;;;;;9.40;58.08;97387.84;1823223;77;21067;-67
2022/01/31 06:29:50;;;;;;;2.62;1.87;;;;;;;9.42;58.06;97379.69;1798174;78;21534;-67
2022/01/31 06:32:19;;;;;;;3.02;1.67;;;;;;;9.41;58.05;97372.78;1820402;78;21592;-66
2022/01/31 06:34:46;;;;;;;1.72;1.40;;;;;;;9.40;58.02;97377.25;1825580;78;21048;-67
2022/01/31 06:37:12;;;;;;;1.75;1.50;;;;;;;9.41;58.01;97381.53;1825742;78;21013;-66
2022/01/31 06:39:38;;;;;;;2.17;1.45;;;;;;;9.41;57.98;97370.94;1819085;78;21092;-68
2022/01/31 06:42:06;;;;;;;1.30;1.20;;;;;;;9.41;57.99;97373.59;1816772;78;21135;-68
2022/01/31 06:44:33;;;;;;;2.35;1.42;;;;;;;9.42;57.96;97384.98;1809815;77;21026;-67
2022/01/31 06:46:59;;;;;;;2.27;1.45;;;;;;;9.43;57.95;97383.97;1802086;77;21005;-66
2022/01/31 06:49:25;;;;;;;1.85;1.60;;;;;;;9.43;57.95;97389.27;1810940;78;21052;-66
2022/01/31 06:51:52;;;;;;;1.85;1.50;;;;;;;9.43;57.92;97391.40;1808087;77;21025;-67
2022/01/31 06:54:18;;;;;;;2.22;1.57;;;;;;;9.44;57.91;97402.80;1810487;78;21489;-65
2022/01/31 06:56:45;;;;;;;2.52;1.80;;;;;;;9.45;57.89;97395.16;1808777;78;21052;-66
2022/01/31 06:59:11;;;;;;;2.10;1.40;;;;;;;9.45;57.85;97395.16;1819536;78;20998;-65
2022/01/31 07:01:38;;;;;;;1.80;1.50;;;;;;;9.47;57.86;97414.83;1824515;77;21021;-65
2022/01/31 07:04:04;;;;;;;2.05;1.60;;;;;;;9.47;57.84;97408.20;1824878;77;21151;-66
2022/01/31 07:06:31;;;;;;;1.80;1.52;;;;;;;9.48;57.83;97404.51;1808260;78;21074;-66
2022/01/31 07:08:59;;;;;;;1.95;1.30;;;;;;;9.48;57.80;97405.31;1825348;77;21431;-65
2022/01/31 07:11:29;;;;;;;1.57;1.35;;;;;;;9.49;57.78;97411.45;1802628;77;21006;-67
2022/01/31 07:14:03;;;;;;;2.08;1.57;;;;;;;9.50;57.76;97403.25;1799295;78;21033;-69
2022/01/31 07:16:22;;;;;;;2.40;1.50;;;;;;;9.51;57.73;97406.21;1814395;77;21084;-66
2022/01/31 07:18:52;;;;;;;2.37;1.60;;;;;;;9.51;57.87;97407.53;1819696;77;21111;-67
2022/01/31 07:21:18;;;;;;;1.55;1.40;;;;;;;9.52;58.13;97407.84;1812471;78;21001;-66
2022/01/31 07:26:29;;;;;;;1.62;1.40;;;;;;;9.54;58.16;97412.91;1807746;78;21103;-65
2022/01/31 07:28:55;;;;;;;2.05;1.55;;;;;;;9.56;58.14;97420.13;1821886;78;21025;-64
2022/01/31 07:31:22;;;;;;;1.50;1.30;;;;;;;9.57;58.12;97421.76;1823883;78;21112;-65
2022/01/31 07:33:48;;;;;;;1.57;1.22;;;;;;;9.60;58.10;97421.30;1823732;78;21060;-67
2022/01/31 07:36:14;;;;;;;2.25;1.75;;;;;;;9.60;58.04;97426.11;1809197;77;21037;-66
2022/01/31 07:38:41;;;;;;;1.70;1.40;;;;;;;9.62;58.02;97433.33;1795491;77;21470;-66
2022/01/31 07:41:12;;;;;;;1.75;1.27;;;;;;;9.64;57.96;97426.49;1798725;77;21018;-65
2022/01/31 07:43:38;;;;;;;1.95;1.40;;;;;;;9.65;57.92;97434.72;1816272;77;21137;-65
2022/01/31 07:46:04;;;;;;;1.90;1.57;;;;;;;9.68;57.89;97434.80;1807138;78;21029;-66
2022/01/31 07:48:31;;;;;;;1.77;1.35;;;;;;;9.69;57.87;97441.73;1807203;78;21020;-65
2022/01/31 07:50:57;;;;;;;1.45;1.35;;;;;;;9.70;57.81;97444.70;1808415;77;21057;-64
2022/01/31 07:53:24;;;;;;;1.40;1.30;;;;;;;9.72;57.75;97448.73;1829910;76;21041;-66
2022/01/31 07:55:51;;;;;;;1.40;1.30;;;;;;;9.73;57.73;97454.32;1826083;77;22530;-64
2022/01/31 07:58:18;;;;;;;2.45;1.70;;;;;;;9.75;57.71;97466.04;1829607;77;21033;-61
2022/01/31 08:00:45;;;;;;;1.55;1.32;;;;;;;9.77;57.67;97463.98;1822334;76;21092;-65
2022/01/31 08:03:12;;;;;;;1.80;1.35;;;;;;;9.77;57.62;97463.48;1815915;76;21025;-65
2022/01/31 08:05:39;;;;;;;1.47;1.37;;;;;;;9.79;57.61;97457.94;1819157;76;21029;-66
2022/01/31 08:08:05;;;;;;;1.60;1.50;;;;;;;9.79;57.58;97460.09;1818138;77;21202;-65
2022/01/31 08:10:35;;;;;;;1.22;1.12;;;;;;;9.81;57.58;97462.52;1819221;78;21068;-65
2022/01/31 08:13:02;;;;;;;1.57;1.17;;;;;;;9.81;57.55;97472.63;1827047;78;21025;-65
2022/01/31 08:15:44;;;;;;;1.57;1.27;;;;;;;9.82;57.50;97473.42;1827376;78;21065;-67
2022/01/31 08:18:03;;;;;;;1.85;1.40;;;;;;;9.82;57.50;97475.55;1752417;80;21039;-65
2022/01/31 08:20:30;;;;;;;2.22;1.70;;;;;;;9.83;57.48;97471.89;1757783;80;21130;-67
2022/01/31 08:22:56;;;;;;;1.30;1.20;;;;;;;9.83;57.46;97481.66;1786870;78;21016;-65
2022/01/31 08:25:23;;;;;;;1.50;1.30;;;;;;;9.84;57.44;97483.30;1757926;80;21093;-65
2022/01/31 08:27:53;;;;;;;1.70;1.47;;;;;;;9.84;57.42;97476.67;1784572;80;21060;-64
2022/01/31 08:30:23;;;;;;;1.77;1.30;;;;;;;9.84;57.41;97478.80;1770806;79;21354;-67
2022/01/31 08:32:58;;;;;;;1.40;1.27;;;;;;;9.85;57.38;97478.30;1780519;78;21149;-65
2022/01/31 08:37:59;;;;;;;1.37;1.27;;;;;;;9.87;57.33;97493.97;1763220;80;21502;-66
2022/01/31 08:40:25;;;;;;;1.45;1.17;;;;;;;9.86;57.31;97505.62;1766751;79;21030;-67
2022/01/31 08:42:53;;;;;;;2.22;1.50;;;;;;;9.85;57.29;97503.50;1769036;80;21560;-64
2022/01/31 08:45:19;;;;;;;1.82;1.50;;;;;;;9.87;57.29;97511.21;1759729;80;21558;-66
2022/01/31 08:47:45;;;;;;;1.62;1.32;;;;;;;9.87;57.28;97509.89;1763169;80;21096;-68
2022/01/31 08:50:12;;;;;;;1.90;1.40;;;;;;;9.87;57.25;97505.41;1771950;79;21479;-69
2022/01/31 08:52:39;;;;;;;1.30;1.20;;;;;;;9.87;57.23;97510.72;1770760;80;21088;-68
2022/01/31 08:55:07;;;;;;;1.92;1.45;;;;;;;9.89;57.21;97511.31;1770765;80;21041;-70
2022/01/31 08:57:33;;;;;;;2.08;1.30;;;;;;;9.89;57.18;97511.31;1767466;80;21178;-70
2022/01/31 09:00:01;;;;;;;1.92;1.12;;;;;;;9.90;57.16;97506.81;1770913;80;21073;-70
2022/01/31 09:02:39;;;;;;;1.25;1.15;;;;;;;9.90;57.11;97508.94;1770311;80;21029;-71
2022/01/31 09:04:59;;;;;;;1.37;1.12;;;;;;;9.91;57.10;97515.05;1766201;80;20995;-69
2022/01/31 09:07:27;;;;;;;1.50;1.30;;;;;;;9.90;57.05;97518.74;1757247;80;21580;-69
2022/01/31 09:09:54;;;;;;;1.77;1.20;;;;;;;9.90;57.04;97525.38;1769658;80;21186;-69
2022/01/31 09:12:23;;;;;;;1.62;1.30;;;;;;;9.90;57.01;97528.83;1761890;80;21834;-71
2022/01/31 09:14:49;;;;;;;1.95;1.42;;;;;;;9.90;57.01;97523.52;1766426;80;21010;-70
2022/01/31 09:17:16;;;;;;;2.47;1.40;;;;;;;9.91;56.98;97525.16;1760565;80;21104;-68
2022/01/31 09:19:42;;;;;;;1.57;1.42;;;;;;;9.90;56.97;97538.11;1756103;79;21101;-68
2022/01/31 09:22:09;;;;;;;1.77;1.27;;;;;;;9.90;56.94;97530.16;1766470;80;21153;-66
2022/01/31 09:24:38;;;;;;;1.37;1.27;;;;;;;9.91;56.94;97541.56;1762941;80;21033;-68
2022/01/31 09:27:06;;;;;;;1.37;1.17;;;;;;;9.91;56.92;97538.42;1763239;80;21011;-69
2022/01/31 09:29:34;;;;;;;1.60;1.50;;;;;;;9.90;56.88;97543.42;1766215;80;21046;-69
2022/01/31 09:32:03;;;;;;;1.67;1.37;;;;;;;9.91;56.90;97546.87;1768790;79;21085;-69
2022/01/31 09:34:32;;;;;;;1.85;1.05;;;;;;;9.91;56.87;97547.70;1766075;80;22134;-69
2022/01/31 09:37:00;;;;;;;1.42;1.22;;;;;;;9.91;56.86;97551.69;1768846;80;21017;-70
2022/01/31 09:39:27;;;;;;;1.70;1.40;;;;;;;9.90;56.86;97552.70;1766177;79;21066;-71
2022/01/31 09:41:56;;;;;;;2.00;1.47;;;;;;;9.91;56.82;97560.97;1766316;80;21048;-69
2022/01/31 09:44:41;;;;;;;2.05;1.20;;;;;;;9.91;56.82;97560.97;1742880;81;21063;-71
2022/01/31 09:47:06;;;;;;;1.70;1.42;;;;;;;9.92;56.80;97562.58;1732452;81;22061;-69
2022/01/31 09:49:22;;;;;;;1.57;1.10;;;;;;;9.93;56.79;97567.36;1714615;81;21080;-69
2022/01/31 09:51:49;;;;;;;2.08;1.25;;;;;;;9.93;56.77;97563.38;1733260;81;21111;-69
2022/01/31 09:54:16;;;;;;;1.22;1.10;;;;;;;9.93;56.74;97564.70;1727944;81;21143;-70
2022/01/31 09:56:45;;;;;;;1.50;1.20;;;;;;;9.91;56.72;97570.25;1745397;81;21040;-69
2022/01/31 09:59:15;;;;;;;1.62;1.50;;;;;;;9.91;56.72;97570.74;1716615;82;21106;-70
2022/01/31 10:01:50;;;;;;;1.70;1.30;;;;;;;9.90;56.71;97567.28;1730527;81;21045;-68
2022/01/31 10:04:18;;;;;;;1.77;1.20;;;;;;;9.91;56.71;97576.05;1721522;82;21358;-70
2022/01/31 10:06:48;;;;;;;1.30;1.20;;;;;;;9.90;56.68;97575.24;1736122;81;21012;-70
2022/01/31 10:09:22;;;;;;;2.05;1.35;;;;;;;9.90;56.67;97582.39;1754820;80;21119;-69
2022/01/31 10:11:53;;;;;;;1.67;1.37;;;;;;;9.90;56.67;97577.89;1744077;80;21592;-69
2022/01/31 10:17:36;;;;;;;1.52;1.42;;;;;;;9.89;56.65;97572.80;1736687;81;21409;-70
2022/01/31 10:20:24;;;;;;;1.20;1.10;;;;;;;9.88;56.62;97572.00;1740054;81;21423;-69
2022/01/31 10:22:52;;;;;;;1.72;1.37;;;;;;;9.86;56.65;97576.70;1779948;78;21569;-71
2022/01/31 10:25:20;;;;;;;1.47;1.27;;;;;;;9.87;56.63;97582.33;1801819;78;21052;-69
2022/01/31 10:27:50;;;;;;;1.27;1.17;;;;;;;9.85;56.64;97575.10;1786437;78;21069;-69
2022/01/31 10:30:21;;;;;;;1.45;1.12;;;;;;;9.86;56.63;97581.20;1785432;78;21084;-67
2022/01/31 10:32:48;;;;;;;1.70;1.40;;;;;;;9.87;56.64;97598.23;1790785;78;21016;-69
2022/01/31 10:35:22;;;;;;;1.37;1.27;;;;;;;9.88;56.61;97583.13;1769037;78;21595;-67
2022/01/31 10:37:52;;;;;;;3.20;1.40;;;;;;;9.87;56.62;97587.63;1777874;78;21094;-68
2022/01/31 10:43:39;;;;;;;1.37;1.05;;;;;;;9.89;56.57;97586.89;1793631;78;20992;-68
2022/01/31 10:51:57;;;;;;;1.22;1.12;;;;;;;9.89;56.53;97592.20;1780566;80;21191;-68
2022/01/31 10:57:01;;;;;;;1.35;1.07;;;;;;;9.89;56.51;97585.57;1785644;80;21035;-69
2022/01/31 10:59:39;;;;;;;1.42;1.30;;;;;;;9.91;56.50;97584.00;1760255;79;21064;-69
2022/01/31 11:02:19;;;;;;;1.30;1.20;;;;;;;9.91;56.48;97550.36;1768511;80;21513;-68
2022/01/31 11:04:46;;;;;;;2.02;1.65;;;;;;;9.93;56.96;97544.32;1786472;80;22353;-67
2022/01/31 11:07:19;;;;;;;2.95;2.20;;;;;;;9.98;58.15;97551.09;1785913;80;21008;-66
2022/01/31 11:09:48;;;;;;;2.75;1.75;;;;;;;10.04;59.46;97544.94;1763294;81;21399;-67
2022/01/31 11:12:16;;;;;;;2.60;2.10;;;;;;;10.14;60.88;97550.23;1761585;81;21267;-65
2022/01/31 11:14:45;;;;;;;3.42;2.05;;;;;;;10.21;62.08;97566.91;1755390;79;21034;-63
2022/01/31 11:17:15;;;;;;;2.75;1.92;;;;;;;10.29;63.16;97567.95;1762844;80;21128;-65
2022/01/31 11:19:48;;;;;;;2.58;1.80;;;;;;;10.37;64.11;97619.47;1791393;78;21087;-66
2022/01/31 11:22:16;;;;;;;4.25;1.87;;;;;;;10.42;64.07;97615.63;1789961;80;21027;-66
2022/01/31 11:24:48;;;;;;;2.85;1.80;;;;;;;10.49;64.20;97610.77;1788921;79;21066;-65
2022/01/31 11:27:21;;;;;;;3.45;2.10;;;;;;;10.53;64.35;97607.99;1781663;79;21029;-66
2022/01/31 11:29:53;;;;;;;2.60;2.10;;;;;;;10.56;64.55;97618.95;1787306;79;21145;-66
2022/01/31 11:32:19;;;;;;;2.52;2.00;;;;;;;10.60;64.85;97621.98;1781043;78;21559;-66
2022/01/31 11:34:46;;;;;;;3.15;2.10;;;;;;;10.63;64.99;97621.04;1785494;78;21032;-67
2022/01/31 11:37:15;;;;;;;3.47;2.20;;;;;;;10.64;65.15;97616.53;1763098;79;21539;-66
2022/01/31 11:39:46;;;;;;;3.15;1.98;;;;;;;10.66;65.23;97620.30;1759738;79;21010;-65
2022/01/31 11:42:13;;;;;;;3.33;2.15;;;;;;;10.67;65.27;97621.94;1797191;78;21142;-66
2022/01/31 11:44:58;;;;;;;3.17;2.10;;;;;;;10.67;65.30;97612.12;1765434;79;21614;-65
2022/01/31 11:47:26;;;;;;;3.90;2.50;;;;;;;10.68;65.27;97624.38;1772057;79;21557;-66
2022/01/31 11:49:59;;;;;;;2.72;2.00;;;;;;;10.67;65.22;97618.76;1767665;80;21596;-67
2022/01/31 11:52:32;;;;;;;2.85;2.08;;;;;;;10.67;65.14;97617.95;1771880;79;21584;-68
2022/01/31 11:55:02;;;;;;;3.00;1.75;;;;;;;10.66;65.01;97633.05;1768802;79;21118;-66
2022/01/31 11:57:32;;;;;;;2.12;1.65;;;;;;;10.66;64.89;97630.92;1750905;80;21046;-67
2022/01/31 12:00:08;;;;;;;3.27;1.92;;;;;;;10.64;64.78;97637.77;1758234;80;21759;-65
2022/01/31 12:03:01;;;;;;;2.47;2.00;;;;;;;10.63;64.68;97637.50;1757089;79;21494;-65
2022/01/31 12:05:30;;;;;;;3.85;2.00;;;;;;;10.61;64.51;97637.70;1759530;80;21071;-65
2022/01/31 12:08:11;;;;;;;2.37;2.08;;;;;;;10.59;64.35;97639.77;1759331;79;21111;-66